Time;durP1;ratioP1;P1;durP2;ratioP2;P2;SDS_P1;SDS_P2;PMS_P1;PMS_P2;Temp;Humidity;BMP_temperature;BMP_pressure;BME280_temperature;BME280_humidity;BME280_pressure;Samples;Min_cycle;Max_cycle;Signal;HPM_P1;HPM_P2
2022/11/21 00:00:19;;;;;;;31.65;8.20;;;;;;;;;;1039507;28;20017;-77
2022/11/21 00:00:50;;;;;;;31.10;9.55;;;;;;;;;;1039493;28;20033;-77
2022/11/21 00:01:23;;;;;;;16.30;6.93;;;;;;;;;;1039822;28;20022;-77
2022/11/21 00:01:53;;;;;;;18.63;7.07;;;;;;;;;;1039245;28;20044;-77
2022/11/21 00:02:24;;;;;;;18.88;6.25;;;;;;;;;;1039292;28;20107;-77
2022/11/21 00:02:57;;;;;;;22.95;7.47;;;;;;;;;;1039250;28;20038;-76
2022/11/21 00:03:28;;;;;;;24.42;7.13;;;;;;;;;;1039568;28;20025;-76
2022/11/21 00:03:58;;;;;;;18.35;8.15;;;;;;;;;;1039823;28;20033;-76
2022/11/21 00:04:30;;;;;;;15.75;6.88;;;;;;;;;;1039724;28;20033;-76
2022/11/21 00:05:00;;;;;;;20.88;7.22;;;;;;;;;;1039733;28;20631;-76
2022/11/21 00:05:31;;;;;;;13.85;5.45;;;;;;;;;;1039855;28;20087;-76
2022/11/21 00:06:02;;;;;;;12.02;6.22;;;;;;;;;;1039035;28;20168;-76
2022/11/21 00:06:32;;;;;;;19.88;6.88;;;;;;;;;;1039434;28;20083;-76
2022/11/21 00:07:03;;;;;;;19.67;6.65;;;;;;;;;;1039132;28;20456;-76
2022/11/21 00:07:34;;;;;;;14.43;6.78;;;;;;;;;;1039501;28;20413;-77
2022/11/21 00:08:04;;;;;;;16.38;7.40;;;;;;;;;;1039228;28;20075;-77
2022/11/21 00:08:35;;;;;;;12.50;7.07;;;;;;;;;;1039362;28;20104;-77
2022/11/21 00:09:05;;;;;;;17.00;7.70;;;;;;;;;;1039234;28;20027;-77
2022/11/21 00:09:36;;;;;;;16.55;6.60;;;;;;;;;;1039611;28;20124;-77
2022/11/21 00:10:07;;;;;;;16.98;5.07;;;;;;;;;;1039317;28;20025;-77
2022/11/21 00:10:38;;;;;;;16.27;5.95;;;;;;;;;;1040077;28;20028;-77
2022/11/21 00:11:08;;;;;;;24.50;7.05;;;;;;;;;;1039249;28;20068;-77
2022/11/21 00:11:39;;;;;;;21.88;6.60;;;;;;;;;;1038412;28;20053;-77
2022/11/21 00:12:10;;;;;;;15.60;6.00;;;;;;;;;;1039694;28;20079;-76
2022/11/21 00:12:40;;;;;;;16.98;7.55;;;;;;;;;;1037144;28;20022;-76
2022/11/21 00:13:12;;;;;;;13.23;5.75;;;;;;;;;;1037445;28;20022;-76
2022/11/21 00:13:43;;;;;;;11.00;6.38;;;;;;;;;;1035184;28;20116;-76
2022/11/21 00:14:13;;;;;;;10.55;6.07;;;;;;;;;;1035145;28;20025;-76
2022/11/21 00:14:44;;;;;;;8.85;4.32;;;;;;;;;;1035259;28;20022;-76
2022/11/21 00:15:14;;;;;;;24.38;7.30;;;;;;;;;;1035477;28;20018;-76
2022/11/21 00:15:46;;;;;;;22.17;5.35;;;;;;;;;;1039304;28;20028;-76
2022/11/21 00:16:16;;;;;;;12.43;5.20;;;;;;;;;;1039942;28;20057;-76
2022/11/21 00:16:47;;;;;;;9.77;3.97;;;;;;;;;;1039459;28;20025;-76
2022/11/21 00:17:17;;;;;;;21.27;5.95;;;;;;;;;;1039354;28;20469;-76
2022/11/21 00:17:48;;;;;;;11.85;5.18;;;;;;;;;;1039640;28;20587;-76
2022/11/21 00:18:18;;;;;;;19.13;5.43;;;;;;;;;;1039837;28;20477;-76
2022/11/21 00:18:49;;;;;;;19.40;5.32;;;;;;;;;;1039459;28;20037;-76
2022/11/21 00:19:19;;;;;;;14.30;5.80;;;;;;;;;;1039284;28;20018;-76
2022/11/21 00:19:50;;;;;;;17.48;5.53;;;;;;;;;;1039224;28;20056;-76
2022/11/21 00:20:21;;;;;;;18.33;6.22;;;;;;;;;;1039767;28;20052;-77
2022/11/21 00:20:51;;;;;;;5.65;3.97;;;;;;;;;;1039199;28;20029;-77
2022/11/21 00:21:22;;;;;;;10.82;6.13;;;;;;;;;;1039546;28;20025;-77
2022/11/21 00:21:52;;;;;;;9.02;3.42;;;;;;;;;;1039469;28;20025;-77
2022/11/21 00:22:23;;;;;;;14.07;3.78;;;;;;;;;;1039695;28;20074;-77
2022/11/21 00:22:54;;;;;;;13.07;4.72;;;;;;;;;;1040378;28;20024;-76
2022/11/21 00:23:27;;;;;;;10.13;4.03;;;;;;;;;;1040325;28;20021;-76
2022/11/21 00:23:57;;;;;;;10.10;4.03;;;;;;;;;;1040262;28;20480;-76
2022/11/21 00:24:28;;;;;;;7.88;3.92;;;;;;;;;;1040459;28;20096;-76
2022/11/21 00:24:58;;;;;;;8.48;3.05;;;;;;;;;;1040239;28;20512;-76
2022/11/21 00:25:29;;;;;;;7.00;4.25;;;;;;;;;;1040460;28;20030;-76
2022/11/21 00:26:02;;;;;;;11.75;3.58;;;;;;;;;;1039619;28;20078;-77
2022/11/21 00:26:33;;;;;;;5.65;3.40;;;;;;;;;;1039673;28;20130;-77
2022/11/21 00:27:03;;;;;;;11.70;3.63;;;;;;;;;;1037913;28;20559;-77
2022/11/21 00:27:34;;;;;;;4.43;2.80;;;;;;;;;;1038358;28;20500;-77
2022/11/21 00:28:05;;;;;;;6.28;3.63;;;;;;;;;;1035847;28;20500;-77
2022/11/21 00:28:35;;;;;;;9.88;3.10;;;;;;;;;;1036148;28;20017;-77
2022/11/21 00:29:06;;;;;;;5.70;2.53;;;;;;;;;;1039823;28;20025;-77
2022/11/21 00:29:37;;;;;;;5.63;2.58;;;;;;;;;;1040530;28;20476;-77
2022/11/21 00:30:08;;;;;;;6.03;2.50;;;;;;;;;;1040290;28;20057;-77
2022/11/21 00:30:39;;;;;;;15.45;4.85;;;;;;;;;;1040110;28;20044;-77
2022/11/21 00:31:17;;;;;;;4.15;2.67;;;;;;;;;;1040012;28;20029;-77
2022/11/21 00:31:48;;;;;;;6.88;3.15;;;;;;;;;;1037373;28;20053;-77
2022/11/21 00:32:18;;;;;;;3.88;2.63;;;;;;;;;;1038350;28;20026;-77
2022/11/21 00:32:49;;;;;;;5.75;3.42;;;;;;;;;;1039805;28;20029;-77
2022/11/21 00:33:19;;;;;;;5.65;3.53;;;;;;;;;;1040087;28;20148;-77
2022/11/21 00:33:50;;;;;;;3.88;2.17;;;;;;;;;;1040306;28;20032;-77
2022/11/21 00:34:20;;;;;;;8.68;2.50;;;;;;;;;;1040275;28;20086;-77
2022/11/21 00:34:51;;;;;;;5.05;2.65;;;;;;;;;;1039765;28;20711;-77
2022/11/21 00:35:22;;;;;;;7.30;2.50;;;;;;;;;;1039921;28;20025;-77
2022/11/21 00:35:52;;;;;;;7.40;2.92;;;;;;;;;;1039901;28;20036;-77
2022/11/21 00:36:23;;;;;;;9.93;3.10;;;;;;;;;;1040254;28;20068;-77
2022/11/21 00:36:53;;;;;;;8.13;2.33;;;;;;;;;;1039631;28;20036;-77
2022/11/21 00:37:24;;;;;;;4.80;2.65;;;;;;;;;;1039984;28;20032;-77
2022/11/21 00:37:55;;;;;;;7.47;3.63;;;;;;;;;;1039843;28;20030;-77
2022/11/21 00:38:26;;;;;;;7.13;3.45;;;;;;;;;;1040060;28;20116;-77
2022/11/21 00:38:57;;;;;;;13.25;2.50;;;;;;;;;;1039839;28;20432;-77
2022/11/21 00:39:27;;;;;;;13.35;3.03;;;;;;;;;;1040247;28;20021;-77
2022/11/21 00:39:58;;;;;;;8.10;2.67;;;;;;;;;;1039976;28;20416;-77
2022/11/21 00:40:28;;;;;;;8.73;3.15;;;;;;;;;;1040272;28;21931;-77
2022/11/21 00:40:59;;;;;;;4.43;2.13;;;;;;;;;;1039573;28;20025;-77
2022/11/21 00:41:29;;;;;;;5.97;2.63;;;;;;;;;;1039918;28;20024;-77
2022/11/21 00:42:00;;;;;;;5.63;2.22;;;;;;;;;;1039916;28;20067;-77
2022/11/21 00:42:31;;;;;;;3.58;1.65;;;;;;;;;;1039867;28;20027;-77
2022/11/21 00:43:01;;;;;;;6.20;2.38;;;;;;;;;;1039898;28;20390;-77
2022/11/21 00:43:32;;;;;;;2.72;1.95;;;;;;;;;;1039609;28;20022;-77
2022/11/21 00:44:02;;;;;;;4.18;1.85;;;;;;;;;;1039456;28;20043;-77
2022/11/21 00:44:33;;;;;;;4.22;2.72;;;;;;;;;;1040659;28;20021;-77
2022/11/21 00:45:04;;;;;;;5.47;2.58;;;;;;;;;;1035695;28;20397;-77
2022/11/21 00:45:34;;;;;;;4.25;1.92;;;;;;;;;;1039731;28;20155;-77
2022/11/21 00:46:05;;;;;;;3.90;1.60;;;;;;;;;;1040174;28;20033;-77
2022/11/21 00:46:36;;;;;;;6.30;2.47;;;;;;;;;;1039430;28;20394;-77
2022/11/21 00:47:06;;;;;;;7.07;2.10;;;;;;;;;;1039502;28;20510;-77
2022/11/21 00:47:37;;;;;;;11.30;2.25;;;;;;;;;;1039758;28;20404;-77
2022/11/21 00:48:07;;;;;;;2.95;1.73;;;;;;;;;;1039796;28;20083;-77
2022/11/21 00:48:38;;;;;;;5.75;3.05;;;;;;;;;;1040220;28;20041;-77
2022/11/21 00:49:08;;;;;;;4.68;2.20;;;;;;;;;;1037699;28;20083;-77
2022/11/21 00:49:39;;;;;;;3.72;2.05;;;;;;;;;;1039163;28;20389;-77
2022/11/21 00:50:09;;;;;;;5.20;2.30;;;;;;;;;;1039864;28;20033;-77
2022/11/21 00:50:40;;;;;;;2.72;2.00;;;;;;;;;;1039728;28;20025;-77
2022/11/21 00:51:10;;;;;;;4.95;2.60;;;;;;;;;;1039835;28;20124;-77
2022/11/21 00:51:41;;;;;;;2.97;1.80;;;;;;;;;;1039899;28;20025;-77
2022/11/21 00:52:12;;;;;;;5.10;1.65;;;;;;;;;;1040093;28;20472;-77
2022/11/21 00:52:42;;;;;;;4.15;2.05;;;;;;;;;;1035835;28;20090;-77
2022/11/21 00:53:13;;;;;;;3.85;2.17;;;;;;;;;;1039852;28;20120;-77
2022/11/21 00:53:43;;;;;;;6.97;2.28;;;;;;;;;;1039684;28;20116;-77
2022/11/21 00:54:14;;;;;;;3.33;1.40;;;;;;;;;;1039883;28;20029;-77
2022/11/21 00:54:44;;;;;;;3.50;2.13;;;;;;;;;;1039567;28;20029;-77
2022/11/21 00:55:15;;;;;;;2.88;1.83;;;;;;;;;;1039970;28;20018;-77
2022/11/21 00:55:45;;;;;;;2.70;1.75;;;;;;;;;;1039737;28;20124;-77
2022/11/21 00:56:16;;;;;;;5.57;2.45;;;;;;;;;;1040025;28;20037;-77
2022/11/21 00:56:47;;;;;;;3.25;2.13;;;;;;;;;;1040183;28;20128;-77
2022/11/21 00:57:17;;;;;;;3.83;2.08;;;;;;;;;;1040289;28;20017;-77
2022/11/21 00:57:48;;;;;;;2.78;1.70;;;;;;;;;;1039936;28;20052;-77
2022/11/21 00:58:18;;;;;;;4.53;2.25;;;;;;;;;;1040165;28;20021;-77
2022/11/21 00:58:49;;;;;;;6.07;2.35;;;;;;;;;;1039565;28;20034;-77
2022/11/21 00:59:19;;;;;;;2.40;1.83;;;;;;;;;;1037885;28;20010;-76
2022/11/21 00:59:50;;;;;;;4.03;2.22;;;;;;;;;;1037246;28;20068;-76
2022/11/21 01:00:20;;;;;;;3.05;1.73;;;;;;;;;;1037090;28;20029;-76
2022/11/21 01:00:51;;;;;;;3.83;2.45;;;;;;;;;;1039428;28;20171;-76
2022/11/21 01:01:22;;;;;;;3.75;1.52;;;;;;;;;;1040143;28;20037;-77
2022/11/21 01:01:52;;;;;;;8.40;2.67;;;;;;;;;;1039349;28;20078;-77
2022/11/21 01:02:23;;;;;;;3.45;1.70;;;;;;;;;;1040159;28;20450;-77
2022/11/21 01:02:53;;;;;;;4.45;2.00;;;;;;;;;;1039991;28;20049;-77
2022/11/21 01:03:24;;;;;;;4.32;2.08;;;;;;;;;;1040486;28;20158;-77
2022/11/21 01:03:56;;;;;;;3.60;2.05;;;;;;;;;;1040132;28;20025;-77
2022/11/21 01:04:30;;;;;;;5.28;3.13;;;;;;;;;;1040126;28;20048;-77
2022/11/21 01:05:00;;;;;;;6.88;2.35;;;;;;;;;;1039786;28;20025;-77
2022/11/21 01:05:32;;;;;;;3.67;1.75;;;;;;;;;;1037732;28;20477;-77
2022/11/21 01:06:03;;;;;;;5.68;2.65;;;;;;;;;;1036246;28;20022;-77
2022/11/21 01:06:36;;;;;;;4.00;2.30;;;;;;;;;;1038147;28;20155;-77
2022/11/21 01:07:06;;;;;;;4.63;2.42;;;;;;;;;;1039649;28;20120;-77
2022/11/21 01:07:37;;;;;;;6.50;2.33;;;;;;;;;;1040324;28;20025;-77
2022/11/21 01:08:07;;;;;;;3.05;1.80;;;;;;;;;;1040022;28;20029;-76
2022/11/21 01:08:39;;;;;;;4.60;2.00;;;;;;;;;;1040225;28;20018;-76
2022/11/21 01:09:09;;;;;;;4.15;1.77;;;;;;;;;;1039301;28;20025;-76
2022/11/21 01:09:40;;;;;;;5.78;2.03;;;;;;;;;;1038766;28;20026;-76
2022/11/21 01:10:10;;;;;;;5.25;2.53;;;;;;;;;;1037647;28;20052;-76
2022/11/21 01:10:41;;;;;;;4.50;1.58;;;;;;;;;;1037894;28;20009;-76
2022/11/21 01:11:13;;;;;;;3.13;1.95;;;;;;;;;;1034941;28;20022;-76
2022/11/21 01:11:43;;;;;;;3.75;1.60;;;;;;;;;;1036356;28;20014;-77
2022/11/21 01:12:14;;;;;;;2.78;1.70;;;;;;;;;;1036934;28;20021;-77
2022/11/21 01:12:45;;;;;;;2.15;1.40;;;;;;;;;;1037586;28;20069;-77
2022/11/21 01:13:15;;;;;;;3.08;1.80;;;;;;;;;;1039194;28;20052;-77
2022/11/21 01:13:47;;;;;;;4.15;2.20;;;;;;;;;;1039311;28;20037;-77
2022/11/21 01:14:17;;;;;;;3.17;2.03;;;;;;;;;;1038990;28;20045;-77
2022/11/21 01:14:48;;;;;;;6.32;2.78;;;;;;;;;;1040276;28;20029;-77
2022/11/21 01:15:18;;;;;;;3.60;2.35;;;;;;;;;;1039626;28;20469;-77
2022/11/21 01:15:49;;;;;;;4.47;1.85;;;;;;;;;;1039967;28;20029;-77
2022/11/21 01:16:21;;;;;;;2.80;1.65;;;;;;;;;;1039423;28;20028;-77
2022/11/21 01:16:52;;;;;;;3.15;1.52;;;;;;;;;;1039954;28;20055;-77
2022/11/21 01:17:22;;;;;;;2.17;1.20;;;;;;;;;;1040038;28;20033;-77
2022/11/21 01:17:53;;;;;;;3.15;2.03;;;;;;;;;;1038758;28;20048;-77
2022/11/21 01:18:23;;;;;;;4.45;2.38;;;;;;;;;;1039737;28;20112;-77
2022/11/21 01:18:55;;;;;;;4.38;2.35;;;;;;;;;;1038691;28;20120;-77
2022/11/21 01:19:25;;;;;;;5.95;2.13;;;;;;;;;;1038983;28;20021;-77
2022/11/21 01:19:56;;;;;;;5.80;2.33;;;;;;;;;;1039869;28;20120;-77
2022/11/21 01:20:26;;;;;;;5.05;2.45;;;;;;;;;;1038844;28;20025;-77
2022/11/21 01:21:07;;;;;;;6.20;2.97;;;;;;;;;;1038514;28;20038;-77
2022/11/21 01:21:38;;;;;;;4.50;2.45;;;;;;;;;;1038010;28;20501;-77
2022/11/21 01:22:08;;;;;;;5.07;2.35;;;;;;;;;;1038405;28;20025;-77
2022/11/21 01:22:39;;;;;;;4.45;2.42;;;;;;;;;;1035925;28;20021;-77
2022/11/21 01:23:10;;;;;;;5.00;2.72;;;;;;;;;;1038355;28;20546;-77
2022/11/21 01:23:40;;;;;;;4.10;2.50;;;;;;;;;;1039210;28;20022;-77
2022/11/21 01:24:11;;;;;;;5.13;2.88;;;;;;;;;;1038914;28;20022;-77
2022/11/21 01:24:41;;;;;;;5.57;3.70;;;;;;;;;;1038734;28;20461;-77
2022/11/21 01:25:12;;;;;;;3.90;2.60;;;;;;;;;;1039220;28;20406;-77
2022/11/21 01:25:43;;;;;;;4.82;2.92;;;;;;;;;;1038747;28;20179;-77
2022/11/21 01:26:15;;;;;;;4.53;2.38;;;;;;;;;;1039463;28;20017;-77
2022/11/21 01:26:47;;;;;;;7.05;2.50;;;;;;;;;;1038898;28;20124;-76
2022/11/21 01:27:18;;;;;;;3.50;2.33;;;;;;;;;;1039919;28;20080;-76
2022/11/21 01:27:49;;;;;;;5.13;2.50;;;;;;;;;;1039169;28;20187;-76
2022/11/21 01:28:19;;;;;;;3.88;2.10;;;;;;;;;;1039660;28;20022;-76
2022/11/21 01:28:50;;;;;;;3.90;1.95;;;;;;;;;;1038875;28;20465;-76
2022/11/21 01:29:20;;;;;;;3.60;1.95;;;;;;;;;;1039878;28;20021;-77
2022/11/21 01:29:51;;;;;;;3.28;1.92;;;;;;;;;;1038932;28;20036;-77
2022/11/21 01:30:22;;;;;;;4.35;2.30;;;;;;;;;;1039053;28;20017;-76
2022/11/21 01:30:52;;;;;;;8.93;3.20;;;;;;;;;;1039305;28;20029;-77
2022/11/21 01:31:24;;;;;;;6.15;2.20;;;;;;;;;;1039539;28;20108;-77
2022/11/21 01:31:55;;;;;;;2.70;1.92;;;;;;;;;;1039105;28;20508;-77
2022/11/21 01:32:25;;;;;;;6.18;3.40;;;;;;;;;;1039406;28;20032;-77
2022/11/21 01:32:56;;;;;;;6.55;2.55;;;;;;;;;;1039927;28;20032;-77
2022/11/21 01:33:27;;;;;;;3.40;2.60;;;;;;;;;;1039241;28;20468;-77
2022/11/21 01:33:58;;;;;;;4.55;3.33;;;;;;;;;;1039093;28;20021;-77
2022/11/21 01:34:29;;;;;;;5.18;2.67;;;;;;;;;;1039369;28;20483;-77
2022/11/21 01:34:59;;;;;;;4.97;2.58;;;;;;;;;;1039044;28;20105;-77
2022/11/21 01:35:30;;;;;;;4.97;2.33;;;;;;;;;;1040344;28;20559;-77
2022/11/21 01:36:10;;;;;;;5.78;2.53;;;;;;;;;;1041281;28;20044;-77
2022/11/21 01:36:40;;;;;;;5.82;2.72;;;;;;;;;;1039942;28;20021;-77
2022/11/21 01:37:11;;;;;;;5.57;2.17;;;;;;;;;;1039375;28;20029;-76
2022/11/21 01:37:42;;;;;;;4.38;2.13;;;;;;;;;;1039512;28;20033;-76
2022/11/21 01:38:12;;;;;;;6.47;3.03;;;;;;;;;;1037855;28;20060;-76
2022/11/21 01:38:45;;;;;;;3.30;2.13;;;;;;;;;;1038469;28;20021;-76
2022/11/21 01:39:16;;;;;;;8.90;2.55;;;;;;;;;;1039886;28;20025;-76
2022/11/21 01:39:46;;;;;;;6.88;2.83;;;;;;;;;;1038139;28;20022;-76
2022/11/21 01:40:17;;;;;;;8.85;2.65;;;;;;;;;;1039087;28;20084;-77
2022/11/21 01:40:48;;;;;;;11.18;3.55;;;;;;;;;;1038654;28;20064;-77
2022/11/21 01:41:20;;;;;;;6.47;2.83;;;;;;;;;;1035472;28;20029;-77
2022/11/21 01:41:50;;;;;;;7.13;3.20;;;;;;;;;;1034975;28;20062;-77
2022/11/21 01:42:21;;;;;;;6.40;3.33;;;;;;;;;;1033757;28;20022;-77
2022/11/21 01:42:57;;;;;;;8.00;3.92;;;;;;;;;;1038952;28;20029;-76
2022/11/21 01:43:28;;;;;;;14.38;5.47;;;;;;;;;;1040858;28;20014;-78
2022/11/21 01:43:59;;;;;;;8.23;4.80;;;;;;;;;;1040134;28;20021;-77
2022/11/21 01:44:47;;;;;;;10.15;3.85;;;;;;;;;;1040355;28;20063;-77
2022/11/21 01:45:36;;;;;;;7.35;3.75;;;;;;;;;;1036315;28;20045;-77
2022/11/21 01:46:07;;;;;;;7.82;4.30;;;;;;;;;;1037526;28;20035;-77
2022/11/21 01:46:37;;;;;;;5.00;2.90;;;;;;;;;;1035371;28;20508;-77
2022/11/21 01:47:08;;;;;;;6.15;3.25;;;;;;;;;;1037769;28;20045;-77
2022/11/21 01:47:39;;;;;;;6.57;2.90;;;;;;;;;;1036641;28;20025;-77
2022/11/21 01:48:09;;;;;;;6.38;3.28;;;;;;;;;;1034052;28;20060;-77
2022/11/21 01:48:46;;;;;;;9.38;2.72;;;;;;;;;;1039671;28;20018;-77
2022/11/21 01:49:17;;;;;;;6.07;2.38;;;;;;;;;;1040509;28;20108;-77
2022/11/21 01:49:49;;;;;;;6.85;2.67;;;;;;;;;;1041084;28;20017;-77
2022/11/21 01:50:20;;;;;;;3.08;2.10;;;;;;;;;;1040392;28;20385;-77
2022/11/21 01:50:51;;;;;;;4.43;2.00;;;;;;;;;;1039496;28;20120;-78
2022/11/21 01:51:37;;;;;;;4.60;3.13;;;;;;;;;;1039780;28;20048;-77
2022/11/21 01:52:07;;;;;;;4.55;2.20;;;;;;;;;;1039124;28;20029;-77
2022/11/21 01:52:38;;;;;;;12.57;3.70;;;;;;;;;;1038951;28;20388;-77
2022/11/21 01:53:09;;;;;;;10.48;4.07;;;;;;;;;;1039876;28;20462;-77
2022/11/21 01:53:42;;;;;;;7.07;3.28;;;;;;;;;;1040028;28;20025;-78
2022/11/21 01:54:30;;;;;;;6.13;2.35;;;;;;;;;;1039330;28;20025;-77
2022/11/21 01:55:02;;;;;;;4.38;2.30;;;;;;;;;;1036131;28;20127;-77
2022/11/21 01:55:33;;;;;;;5.97;2.88;;;;;;;;;;1035474;28;20397;-77
2022/11/21 01:56:04;;;;;;;4.18;2.13;;;;;;;;;;1039239;28;20072;-77
2022/11/21 01:56:39;;;;;;;6.35;2.75;;;;;;;;;;1039871;28;20070;-77
2022/11/21 01:57:18;;;;;;;8.75;2.58;;;;;;;;;;1040356;28;20025;-78
2022/11/21 01:57:49;;;;;;;7.72;3.13;;;;;;;;;;1040094;28;20025;-78
2022/11/21 01:58:20;;;;;;;9.35;2.35;;;;;;;;;;1040600;28;20028;-77
2022/11/21 01:58:53;;;;;;;10.20;3.08;;;;;;;;;;1040323;28;20075;-77
2022/11/21 01:59:30;;;;;;;9.93;3.50;;;;;;;;;;1040758;28;20534;-77
2022/11/21 02:00:04;;;;;;;7.68;3.45;;;;;;;;;;1039255;28;20075;-77
2022/11/21 02:00:36;;;;;;;8.40;2.78;;;;;;;;;;1039669;28;20459;-77
2022/11/21 02:01:06;;;;;;;9.27;3.35;;;;;;;;;;1040755;28;20021;-77
2022/11/21 02:01:37;;;;;;;6.15;2.72;;;;;;;;;;1039089;28;20455;-78
2022/11/21 02:02:09;;;;;;;6.70;2.83;;;;;;;;;;1039776;28;20075;-77
2022/11/21 02:02:42;;;;;;;9.35;2.80;;;;;;;;;;1038731;28;20026;-77
2022/11/21 02:03:14;;;;;;;8.68;2.97;;;;;;;;;;1039479;28;20626;-78
2022/11/21 02:03:46;;;;;;;5.30;2.83;;;;;;;;;;1041125;28;20026;-78
2022/11/21 02:04:16;;;;;;;6.22;2.40;;;;;;;;;;1039891;28;20018;-77
2022/11/21 02:04:47;;;;;;;5.60;2.40;;;;;;;;;;1039600;28;20073;-77
2022/11/21 02:05:22;;;;;;;10.18;3.65;;;;;;;;;;1039804;28;20027;-77
2022/11/21 02:05:54;;;;;;;14.10;5.00;;;;;;;;;;1040627;28;20029;-77
2022/11/21 02:06:25;;;;;;;9.90;4.43;;;;;;;;;;1040153;28;20017;-77
2022/11/21 02:06:55;;;;;;;11.43;4.28;;;;;;;;;;1039366;28;20485;-77
2022/11/21 02:07:27;;;;;;;14.55;4.63;;;;;;;;;;1039552;28;20033;-77
2022/11/21 02:08:02;;;;;;;21.92;4.53;;;;;;;;;;1038994;28;20417;-77
2022/11/21 02:08:32;;;;;;;6.88;2.90;;;;;;;;;;1040350;28;20103;-77
2022/11/21 02:09:03;;;;;;;14.90;4.40;;;;;;;;;;1039479;28;20408;-77
2022/11/21 02:09:36;;;;;;;8.68;2.78;;;;;;;;;;1039733;28;20037;-77
2022/11/21 02:10:08;;;;;;;8.98;3.50;;;;;;;;;;1039624;28;20021;-78
2022/11/21 02:10:41;;;;;;;6.57;3.50;;;;;;;;;;1038926;28;20040;-78
2022/11/21 02:11:33;;;;;;;9.25;3.00;;;;;;;;;;1035093;28;20041;-77
2022/11/21 02:12:06;;;;;;;6.25;3.20;;;;;;;;;;1038099;28;20072;-77
2022/11/21 02:12:40;;;;;;;6.20;2.53;;;;;;;;;;1038476;28;20025;-77
2022/11/21 02:13:10;;;;;;;4.70;2.45;;;;;;;;;;1037577;28;20017;-77
2022/11/21 02:13:41;;;;;;;9.38;2.78;;;;;;;;;;1038966;28;20029;-78
2022/11/21 02:14:11;;;;;;;5.22;3.17;;;;;;;;;;1040627;28;20029;-77
2022/11/21 02:14:42;;;;;;;4.85;2.90;;;;;;;;;;1039769;28;20815;-77
2022/11/21 02:15:13;;;;;;;5.72;2.28;;;;;;;;;;1040039;28;20545;-77
2022/11/21 02:15:44;;;;;;;5.88;3.17;;;;;;;;;;1040247;28;20021;-77
2022/11/21 02:16:15;;;;;;;6.88;2.85;;;;;;;;;;1040100;28;20033;-77
2022/11/21 02:16:46;;;;;;;4.90;2.45;;;;;;;;;;1038576;28;20094;-77
2022/11/21 02:17:17;;;;;;;6.43;3.92;;;;;;;;;;1039844;28;20452;-77
2022/11/21 02:17:47;;;;;;;5.85;3.30;;;;;;;;;;1038157;28;20037;-77
2022/11/21 02:18:18;;;;;;;6.82;3.10;;;;;;;;;;1037076;28;20029;-77
2022/11/21 02:18:48;;;;;;;6.13;2.65;;;;;;;;;;1039426;28;20499;-77
2022/11/21 02:19:24;;;;;;;11.07;3.05;;;;;;;;;;1040487;28;20475;-77
2022/11/21 02:19:57;;;;;;;6.43;3.25;;;;;;;;;;1039022;28;20528;-77
2022/11/21 02:20:27;;;;;;;9.25;2.15;;;;;;;;;;1039092;28;20029;-77
2022/11/21 02:21:02;;;;;;;9.07;3.85;;;;;;;;;;1039926;28;20093;-77
2022/11/21 02:21:48;;;;;;;5.72;2.92;;;;;;;;;;1040420;28;20095;-77
2022/11/21 02:22:22;;;;;;;10.90;3.85;;;;;;;;;;1039928;28;20032;-77
2022/11/21 02:22:55;;;;;;;10.65;3.25;;;;;;;;;;1039510;28;20350;-78
2022/11/21 02:23:28;;;;;;;8.25;2.85;;;;;;;;;;1039773;28;20056;-77
2022/11/21 02:23:59;;;;;;;6.75;3.00;;;;;;;;;;1038751;28;20025;-77
2022/11/21 02:24:38;;;;;;;6.80;2.92;;;;;;;;;;1038813;28;20496;-77
2022/11/21 02:25:13;;;;;;;8.45;3.60;;;;;;;;;;1039595;28;20044;-77
2022/11/21 02:25:43;;;;;;;4.53;2.67;;;;;;;;;;1039130;28;20033;-77
2022/11/21 02:26:14;;;;;;;9.25;3.58;;;;;;;;;;1039858;28;20029;-78
2022/11/21 02:26:46;;;;;;;7.95;3.92;;;;;;;;;;1039943;28;20467;-77
2022/11/21 02:27:17;;;;;;;9.65;3.80;;;;;;;;;;1037980;28;20114;-77
2022/11/21 02:27:49;;;;;;;5.55;3.40;;;;;;;;;;1040278;28;20044;-77
2022/11/21 02:28:22;;;;;;;7.03;3.63;;;;;;;;;;1040057;28;20087;-77
2022/11/21 02:28:53;;;;;;;9.02;3.42;;;;;;;;;;1039451;28;20067;-77
2022/11/21 02:29:23;;;;;;;5.10;2.35;;;;;;;;;;1040402;28;20025;-77
2022/11/21 02:29:54;;;;;;;7.68;3.85;;;;;;;;;;1040088;28;20025;-77
2022/11/21 02:30:26;;;;;;;6.50;2.88;;;;;;;;;;1039386;28;20021;-77
2022/11/21 02:30:57;;;;;;;7.18;3.85;;;;;;;;;;1039726;28;20048;-77
2022/11/21 02:31:27;;;;;;;6.35;3.42;;;;;;;;;;1039660;28;20017;-77
2022/11/21 02:31:59;;;;;;;11.02;4.30;;;;;;;;;;1040181;28;20053;-77
2022/11/21 02:32:36;;;;;;;9.55;3.45;;;;;;;;;;1040144;28;20017;-77
2022/11/21 02:33:07;;;;;;;6.38;3.25;;;;;;;;;;1039455;28;20021;-77
2022/11/21 02:33:38;;;;;;;7.28;3.22;;;;;;;;;;1038801;28;20049;-77
2022/11/21 02:34:08;;;;;;;11.88;4.95;;;;;;;;;;1039981;28;20021;-77
2022/11/21 02:34:39;;;;;;;12.15;3.72;;;;;;;;;;1038557;28;20033;-77
2022/11/21 02:35:09;;;;;;;14.50;5.25;;;;;;;;;;1037864;28;20017;-77
2022/11/21 02:35:41;;;;;;;8.25;4.00;;;;;;;;;;1038882;28;20051;-78
2022/11/21 02:36:30;;;;;;;9.55;4.80;;;;;;;;;;1039736;28;20026;-78
2022/11/21 02:37:01;;;;;;;6.03;3.72;;;;;;;;;;1039441;28;20118;-77
2022/11/21 02:37:32;;;;;;;5.80;2.95;;;;;;;;;;1038740;28;20034;-77
2022/11/21 02:38:05;;;;;;;7.75;3.80;;;;;;;;;;1040459;28;20037;-77
2022/11/21 02:38:37;;;;;;;13.05;4.18;;;;;;;;;;1038545;28;20017;-78
2022/11/21 02:39:09;;;;;;;10.02;5.03;;;;;;;;;;1038886;28;20021;-77
2022/11/21 02:39:40;;;;;;;11.75;4.05;;;;;;;;;;1040283;28;20532;-77
2022/11/21 02:40:18;;;;;;;10.35;3.95;;;;;;;;;;1039686;28;20106;-77
2022/11/21 02:40:59;;;;;;;9.43;3.67;;;;;;;;;;1038810;28;20029;-77
2022/11/21 02:41:32;;;;;;;7.22;3.00;;;;;;;;;;1039709;28;20049;-77
2022/11/21 02:42:05;;;;;;;9.82;4.32;;;;;;;;;;1039551;28;20132;-77
2022/11/21 02:42:43;;;;;;;4.75;2.55;;;;;;;;;;1038944;28;20044;-77
2022/11/21 02:43:16;;;;;;;7.07;3.60;;;;;;;;;;1039382;28;20091;-77
2022/11/21 02:43:56;;;;;;;7.20;3.60;;;;;;;;;;1039708;28;20027;-77
2022/11/21 02:44:26;;;;;;;;;;;;;;;;;;1038668;28;20044;-77
2022/11/21 02:45:02;;;;;;;11.80;4.47;;;;;;;;;;1039135;28;19916;-77
2022/11/21 02:45:33;;;;;;;12.70;3.47;;;;;;;;;;1038864;28;20036;-77
2022/11/21 02:46:04;;;;;;;7.95;3.47;;;;;;;;;;1039268;28;20116;-78
2022/11/21 02:46:34;;;;;;;6.90;3.33;;;;;;;;;;1039168;28;20380;-77
2022/11/21 02:47:05;;;;;;;13.23;3.88;;;;;;;;;;1040002;28;20155;-77
2022/11/21 02:47:37;;;;;;;8.88;3.85;;;;;;;;;;1039323;28;20083;-77
2022/11/21 02:48:08;;;;;;;7.05;3.10;;;;;;;;;;1037636;28;20444;-77
2022/11/21 02:48:39;;;;;;;12.18;3.30;;;;;;;;;;1036492;28;20431;-77
2022/11/21 02:49:10;;;;;;;8.13;3.60;;;;;;;;;;1039465;28;20029;-77
2022/11/21 02:49:48;;;;;;;6.32;2.75;;;;;;;;;;1039693;28;20100;-78
2022/11/21 02:50:20;;;;;;;5.47;3.22;;;;;;;;;;1036947;28;20037;-78
2022/11/21 02:50:51;;;;;;;11.50;4.05;;;;;;;;;;1038410;28;20124;-78
2022/11/21 02:51:22;;;;;;;6.30;3.33;;;;;;;;;;1040121;28;20521;-77
2022/11/21 02:51:52;;;;;;;9.25;3.53;;;;;;;;;;1041535;28;20025;-77
2022/11/21 02:52:23;;;;;;;8.70;4.25;;;;;;;;;;1034637;28;20116;-77
2022/11/21 02:52:56;;;;;;;14.85;4.53;;;;;;;;;;1034777;28;20044;-77
2022/11/21 02:53:27;;;;;;;17.15;6.38;;;;;;;;;;1040078;28;20028;-77
2022/11/21 02:53:57;;;;;;;23.58;5.15;;;;;;;;;;1039386;28;20021;-76
2022/11/21 02:54:28;;;;;;;20.50;4.57;;;;;;;;;;1038396;28;20040;-78
2022/11/21 02:54:59;;;;;;;33.13;7.22;;;;;;;;;;1039409;28;20090;-77
2022/11/21 02:55:29;;;;;;;27.15;6.93;;;;;;;;;;1040801;28;20112;-76
2022/11/21 02:56:00;;;;;;;26.40;6.32;;;;;;;;;;1038745;28;20025;-78
2022/11/21 02:56:31;;;;;;;25.85;6.22;;;;;;;;;;1038469;28;20411;-79
2022/11/21 02:57:01;;;;;;;12.73;4.68;;;;;;;;;;1038602;28;20462;-77
2022/11/21 02:57:33;;;;;;;21.05;6.00;;;;;;;;;;1038820;28;20021;-76
2022/11/21 02:58:05;;;;;;;16.98;5.07;;;;;;;;;;1039834;28;20037;-76
2022/11/21 02:58:36;;;;;;;23.58;4.97;;;;;;;;;;1037834;28;20191;-77
2022/11/21 02:59:07;;;;;;;28.55;5.70;;;;;;;;;;1038602;28;20709;-76
2022/11/21 02:59:37;;;;;;;16.13;4.03;;;;;;;;;;1040034;28;20061;-76
2022/11/21 03:00:09;;;;;;;26.33;6.28;;;;;;;;;;1039899;28;20128;-76
2022/11/21 03:00:41;;;;;;;21.13;4.65;;;;;;;;;;1038350;28;20025;-76
2022/11/21 03:01:12;;;;;;;27.83;7.22;;;;;;;;;;1038197;28;20021;-77
2022/11/21 03:01:43;;;;;;;18.95;7.57;;;;;;;;;;1038097;28;20029;-77
2022/11/21 03:02:13;;;;;;;27.83;6.57;;;;;;;;;;1039249;28;20029;-77
2022/11/21 03:02:44;;;;;;;34.05;6.60;;;;;;;;;;1037324;28;20063;-76
2022/11/21 03:03:15;;;;;;;14.23;6.03;;;;;;;;;;1039068;28;20025;-77
2022/11/21 03:03:45;;;;;;;12.77;5.38;;;;;;;;;;1036526;28;20025;-76
2022/11/21 03:04:16;;;;;;;18.48;6.32;;;;;;;;;;1039264;28;20120;-77
2022/11/21 03:04:47;;;;;;;10.93;3.97;;;;;;;;;;1038799;28;20080;-79
2022/11/21 03:05:19;;;;;;;18.45;6.97;;;;;;;;;;1039206;28;20022;-79
2022/11/21 03:05:50;;;;;;;18.88;5.00;;;;;;;;;;1039475;28;20025;-78
2022/11/21 03:06:20;;;;;;;25.20;5.82;;;;;;;;;;1039323;28;20021;-77
2022/11/21 03:06:51;;;;;;;14.75;4.47;;;;;;;;;;1040540;28;20017;-78
2022/11/21 03:07:22;;;;;;;22.15;4.97;;;;;;;;;;1039278;28;20029;-78
2022/11/21 03:07:52;;;;;;;9.73;4.45;;;;;;;;;;1039753;28;20455;-78
2022/11/21 03:08:23;;;;;;;14.63;5.00;;;;;;;;;;1039877;28;20132;-77
2022/11/21 03:08:54;;;;;;;13.55;4.97;;;;;;;;;;1038462;28;20078;-77